Pryor, Colorado
Current Conditions -  °F | °C
As of 3:10 AM on Saturday 25 Oct 2014 (Local Time) from KVTP Reporting Station
Clear Clear  
Wind Chill:   Ceiling: Unl
Heat Index:   Visibility: 10mi
Dew Point: -6°   Wind: 6mph
Humidity: 39%   Direction: 210°SSW
Pressure: 30.53"   Gusts: NA
Location:  37.6936°N, 104.772°W
Report Text: KVTP 250910Z AUTO 21005KT 10SM CLR 07/M06 A3053 RMK AO2
Loading
Personal Weather Stations






























Interactive Weather Map
Tropical Storm Tracking
New forecast layout! Learn more

10-Day Weather Forecast

Advertisements
Track Severe Weather on mobile